< Typhoon 201328 2013 Season Typhoon 201330 >
Typhoon 201329 (KROSA)
General InformationTrack Information on Google MapsDetailed Wind InformationForecast History on Google MapsAccess Analytics MapList of All Images || NewsDisaster Info.WeblogTrackbackTyphoon FrontTwiphoonTyphoon Now!Typhoon ImaginationDisaster Info. XMLResourceGoogle EarthGE AnimationAtom FeedGeoJSON
Detalied Best Track (Time Zone = UTC)
Year Month Day Hour Lat. Long. Pressure (hPa) Wind (kt) Class Image Chart
2013 10 27 18 12.9 142.3 1006 0 2 Image Chart
2013 10 28 00 13.9 140.5 1008 0 2 Image Chart
2013 10 28 06 14.6 138.8 1006 0 2 Image Chart
2013 10 28 12 15.4 137.2 1008 0 2 Image Chart
2013 10 28 18 15.5 135.7 1006 0 2 Image Chart
2013 10 29 00 15.4 134.5 1004 0 2 Image Chart
2013 10 29 06 15.5 133.4 1002 0 2 Image Chart
2013 10 29 12 15.8 132.4 1004 0 2 Image Chart
2013 10 29 18 16.1 131.1 1000 35 3 Image Chart
2013 10 30 00 16.4 129.8 996 40 3 Image Chart
2013 10 30 06 16.9 128.4 994 45 3 Image Chart
2013 10 30 12 17.2 126.8 992 50 4 Image Chart
2013 10 30 18 17.5 125.4 990 55 4 Image Chart
2013 10 31 00 17.6 124.2 985 60 4 Image Chart
2013 10 31 06 18.0 123.1 980 65 5 Image Chart
2013 10 31 12 18.3 121.8 975 70 5 Image Chart
2013 10 31 18 18.5 120.6 975 70 5 Image Chart
2013 11 1 00 18.9 119.3 975 70 5 Image Chart
2013 11 1 06 19.1 118.2 975 70 5 Image Chart
2013 11 1 12 19.4 117.3 975 70 5 Image Chart
2013 11 1 18 19.4 116.4 970 75 5 Image Chart
2013 11 2 00 19.6 115.9 970 75 5 Image Chart
2013 11 2 06 19.9 115.4 970 75 5 Image Chart
2013 11 2 12 20.1 115.0 975 70 5 Image Chart
2013 11 2 18 20.2 114.8 980 65 5 Image Chart
2013 11 3 00 20.3 114.7 985 60 4 Image Chart
2013 11 3 06 20.3 114.3 990 55 4 Image Chart
2013 11 3 12 19.8 113.8 994 45 3 Image Chart
2013 11 3 18 19.1 113.3 996 40 3 Image Chart
2013 11 4 00 18.6 112.4 1000 35 3 Image Chart
2013 11 4 06 17.7 111.2 1004 0 2 Image Chart
2013 11 4 12 16.8 110.0 1008 0 2 Image Chart
2013 11 4 18 15.6 109.0 1010 0 2 Image Chart
Japan Meteorological Agency Best Track Data | Correction Date : 2013-11-20
< Typhoon 201328 2013 Season Typhoon 201330 >

Help